Time;durP1;ratioP1;P1;durP2;ratioP2;P2;SDS_P1;SDS_P2;PMS_P1;PMS_P2;Temp;Humidity;BMP_temperature;BMP_pressure;BME280_temperature;BME280_humidity;BME280_pressure;Samples;Min_cycle;Max_cycle;Signal;HPM_P1;HPM_P2
2021/08/19 00:02:19;;;;;;;1.42;1.17;;;17.20;86.30;;;;;;4994124;28;20026;-77
2021/08/19 00:04:46;;;;;;;1.83;1.17;;;17.10;86.20;;;;;;4991158;28;20039;-77
2021/08/19 00:07:12;;;;;;;2.30;1.50;;;17.10;86.30;;;;;;5009025;28;20141;-77
2021/08/19 00:09:38;;;;;;;2.03;1.30;;;17.10;86.40;;;;;;4993967;28;20459;-78
2021/08/19 00:12:08;;;;;;;1.92;1.30;;;17.10;86.40;;;;;;4994464;28;20033;-77
2021/08/19 00:14:35;;;;;;;2.05;1.38;;;17.10;86.40;;;;;;4991512;28;20022;-77
2021/08/19 00:17:01;;;;;;;2.42;1.55;;;17.10;86.40;;;;;;5007454;28;20045;-77
2021/08/19 00:19:27;;;;;;;2.00;1.33;;;17.10;86.50;;;;;;5009079;28;20034;-77
2021/08/19 00:21:52;;;;;;;1.63;1.20;;;17.10;86.60;;;;;;4992894;28;20046;-77
2021/08/19 00:24:19;;;;;;;1.73;1.30;;;17.10;86.60;;;;;;4992601;28;20091;-77
2021/08/19 00:26:44;;;;;;;1.63;1.20;;;17.10;86.60;;;;;;4992319;28;20085;-76
2021/08/19 00:29:10;;;;;;;2.33;1.55;;;17.10;86.70;;;;;;5008425;28;20053;-76
2021/08/19 00:31:36;;;;;;;1.52;1.20;;;17.10;86.80;;;;;;4993385;28;20050;-77
2021/08/19 00:34:01;;;;;;;2.58;1.60;;;17.10;86.80;;;;;;4992249;28;20047;-77
2021/08/19 00:36:27;;;;;;;3.20;1.98;;;17.00;86.80;;;;;;4992063;28;20066;-77
2021/08/19 00:38:53;;;;;;;2.03;1.33;;;17.00;86.80;;;;;;4993285;28;20145;-77
2021/08/19 00:41:19;;;;;;;2.20;1.48;;;17.10;86.90;;;;;;4990815;28;20042;-77
2021/08/19 00:43:46;;;;;;;2.80;1.58;;;17.10;86.90;;;;;;4990553;28;20050;-77
2021/08/19 00:46:30;;;;;;;2.38;1.60;;;17.10;86.90;;;;;;4993067;28;20042;-77
2021/08/19 00:49:06;;;;;;;2.00;1.35;;;17.10;86.90;;;;;;4993351;28;20482;-77
2021/08/19 00:51:49;;;;;;;1.80;1.20;;;17.10;86.90;;;;;;5006824;28;20394;-76
2021/08/19 00:54:20;;;;;;;1.77;1.25;;;17.00;86.90;;;;;;5007151;28;20140;-77
2021/08/19 00:56:46;;;;;;;2.35;1.65;;;17.10;86.90;;;;;;4993338;28;20061;-77
2021/08/19 00:59:13;;;;;;;4.15;1.58;;;17.10;86.90;;;;;;4993620;28;20585;-77
2021/08/19 01:01:39;;;;;;;2.67;1.55;;;17.00;86.90;;;;;;4991789;28;20537;-77
2021/08/19 01:04:05;;;;;;;1.90;1.40;;;17.10;87.00;;;;;;5007868;28;20034;-77
2021/08/19 01:06:32;;;;;;;2.08;1.30;;;17.10;87.00;;;;;;4990636;28;20041;-76
2021/08/19 01:08:58;;;;;;;2.13;1.45;;;17.10;87.00;;;;;;4992344;28;20053;-77
2021/08/19 01:11:24;;;;;;;1.90;1.15;;;17.00;87.00;;;;;;4992395;28;20031;-77
2021/08/19 01:13:50;;;;;;;1.77;1.30;;;17.10;87.10;;;;;;4975775;28;20052;-77
2021/08/19 01:16:18;;;;;;;2.58;1.48;;;17.00;87.10;;;;;;4991905;28;20093;-77
2021/08/19 01:18:46;;;;;;;2.05;1.40;;;17.10;87.20;;;;;;4992129;28;20471;-77
2021/08/19 01:21:13;;;;;;;2.45;1.50;;;17.10;87.20;;;;;;4991694;28;20490;-76
2021/08/19 01:23:40;;;;;;;1.90;1.42;;;17.00;87.10;;;;;;5007872;28;20065;-77
2021/08/19 01:26:09;;;;;;;2.92;1.40;;;17.10;87.20;;;;;;4992848;28;20395;-77
2021/08/19 01:28:36;;;;;;;2.25;1.38;;;17.10;87.20;;;;;;4989498;28;20388;-77
2021/08/19 01:31:03;;;;;;;2.63;1.50;;;17.10;87.20;;;;;;4992697;28;20046;-77
2021/08/19 01:33:30;;;;;;;2.00;1.38;;;17.10;87.20;;;;;;4992514;28;20042;-77
2021/08/19 01:35:56;;;;;;;3.05;1.60;;;17.10;87.30;;;;;;4990241;28;20072;-77
2021/08/19 01:38:30;;;;;;;2.30;1.35;;;17.20;87.40;;;;;;4992642;28;20078;-77
2021/08/19 01:40:56;;;;;;;3.22;1.58;;;17.10;87.30;;;;;;5007642;28;20112;-77
2021/08/19 01:43:22;;;;;;;2.00;1.50;;;17.20;87.40;;;;;;4991264;28;20475;-77
2021/08/19 01:45:48;;;;;;;2.85;1.60;;;17.20;87.40;;;;;;4991259;28;20039;-77
2021/08/19 01:48:15;;;;;;;3.00;1.77;;;17.10;87.40;;;;;;4992664;28;20411;-77
2021/08/19 01:50:41;;;;;;;4.07;1.50;;;17.20;87.40;;;;;;4990145;28;20034;-77
2021/08/19 01:53:07;;;;;;;2.08;1.60;;;17.20;87.40;;;;;;5006044;28;20185;-77
2021/08/19 01:55:33;;;;;;;2.20;1.50;;;17.20;87.50;;;;;;5006981;28;20065;-77
2021/08/19 01:57:58;;;;;;;2.17;1.30;;;17.20;87.50;;;;;;4990313;28;20431;-77
2021/08/19 02:00:24;;;;;;;2.38;1.20;;;17.20;87.40;;;;;;4989566;28;20042;-77
2021/08/19 02:02:50;;;;;;;1.27;0.90;;;17.20;87.50;;;;;;4988990;28;20034;-77
2021/08/19 02:05:15;;;;;;;1.15;0.85;;;17.20;87.50;;;;;;4990188;28;20078;-77
2021/08/19 02:07:41;;;;;;;2.42;1.50;;;17.20;87.50;;;;;;5006461;28;20081;-77
2021/08/19 02:10:07;;;;;;;2.10;1.45;;;17.20;87.60;;;;;;4992282;28;20038;-77
2021/08/19 02:12:33;;;;;;;1.83;1.33;;;17.20;87.60;;;;;;4991985;28;20138;-77
2021/08/19 02:14:59;;;;;;;2.40;1.48;;;17.20;87.60;;;;;;4992118;28;20038;-77
2021/08/19 02:17:25;;;;;;;2.97;1.70;;;17.30;87.70;;;;;;4992508;28;20050;-77
2021/08/19 02:19:51;;;;;;;3.58;1.67;;;17.30;87.70;;;;;;4990841;28;20073;-77
2021/08/19 02:22:17;;;;;;;3.08;1.75;;;17.30;87.70;;;;;;4991832;28;20414;-77
2021/08/19 02:24:42;;;;;;;1.95;1.38;;;17.30;87.70;;;;;;4992163;28;20049;-77
2021/08/19 02:27:08;;;;;;;2.13;1.45;;;17.30;87.70;;;;;;4988792;28;20045;-77
2021/08/19 02:29:34;;;;;;;3.95;1.90;;;17.30;87.70;;;;;;4990941;28;20053;-77
2021/08/19 02:31:59;;;;;;;2.85;1.58;;;17.30;87.70;;;;;;4990773;28;20071;-77
2021/08/19 02:34:25;;;;;;;3.95;2.35;;;17.40;87.80;;;;;;5006883;28;20154;-77
2021/08/19 02:36:51;;;;;;;2.20;1.50;;;17.30;87.80;;;;;;5006790;28;20069;-77
2021/08/19 02:39:17;;;;;;;3.15;1.85;;;17.40;87.90;;;;;;4990250;28;20065;-77
2021/08/19 02:41:43;;;;;;;3.85;2.30;;;17.40;87.80;;;;;;4989236;28;20502;-76
2021/08/19 02:44:09;;;;;;;3.88;2.00;;;17.40;87.90;;;;;;4992432;28;20046;-77
2021/08/19 02:46:35;;;;;;;4.18;2.30;;;17.40;87.80;;;;;;4989685;28;20050;-78
2021/08/19 02:49:00;;;;;;;3.45;2.30;;;17.50;87.90;;;;;;4992329;28;20034;-77
2021/08/19 02:51:26;;;;;;;3.15;1.95;;;17.40;87.90;;;;;;5005909;28;20435;-77
2021/08/19 02:53:52;;;;;;;3.88;2.47;;;17.50;88.00;;;;;;4993671;28;20035;-77
2021/08/19 02:56:18;;;;;;;4.70;2.60;;;17.40;87.90;;;;;;4992801;28;20089;-77
2021/08/19 02:58:43;;;;;;;3.97;2.20;;;17.50;87.90;;;;;;4992217;28;20057;-78
2021/08/19 03:01:09;;;;;;;3.10;2.03;;;17.50;88.00;;;;;;5009614;28;20085;-77
2021/08/19 03:03:35;;;;;;;2.85;2.05;;;17.50;88.00;;;;;;4995162;28;20117;-77
2021/08/19 03:06:00;;;;;;;3.33;1.90;;;17.50;88.00;;;;;;5008758;28;20446;-77
2021/08/19 03:08:26;;;;;;;4.13;2.45;;;17.50;88.00;;;;;;4994998;28;20077;-77
2021/08/19 03:10:52;;;;;;;4.55;2.30;;;17.50;88.10;;;;;;4994692;28;20073;-77
2021/08/19 03:13:18;;;;;;;3.42;2.47;;;17.50;88.10;;;;;;4995461;28;20049;-77
2021/08/19 03:15:43;;;;;;;3.33;2.17;;;17.50;88.10;;;;;;4991947;28;20045;-77
2021/08/19 03:18:09;;;;;;;3.90;2.60;;;17.50;88.10;;;;;;4992886;28;20050;-77
2021/08/19 03:20:35;;;;;;;4.55;2.42;;;17.50;88.20;;;;;;4992423;28;20062;-76
2021/08/19 03:23:01;;;;;;;5.72;2.67;;;17.50;88.30;;;;;;4994536;28;20038;-77
2021/08/19 03:25:27;;;;;;;3.88;2.45;;;17.50;88.30;;;;;;5009601;28;20133;-76
2021/08/19 03:28:00;;;;;;;4.10;2.60;;;17.50;88.30;;;;;;4994512;28;20042;-77
2021/08/19 03:30:27;;;;;;;3.83;2.60;;;17.50;88.40;;;;;;4993025;28;20034;-77
2021/08/19 03:32:52;;;;;;;4.80;2.70;;;17.50;88.40;;;;;;4992418;28;20053;-77
2021/08/19 03:35:18;;;;;;;4.60;2.58;;;17.40;88.40;;;;;;4992179;28;20530;-77
2021/08/19 03:37:44;;;;;;;3.58;2.35;;;17.40;88.40;;;;;;4994816;28;20475;-77
2021/08/19 03:40:10;;;;;;;5.40;2.42;;;17.40;88.50;;;;;;4994352;28;20100;-77
2021/08/19 03:42:37;;;;;;;3.90;2.28;;;17.40;88.50;;;;;;5008192;28;20046;-76
2021/08/19 03:45:06;;;;;;;3.80;2.00;;;17.40;88.60;;;;;;4991719;28;20045;-77
2021/08/19 03:47:31;;;;;;;3.50;2.20;;;17.30;88.60;;;;;;5007189;28;20050;-77
2021/08/19 03:49:58;;;;;;;4.72;2.13;;;17.30;88.60;;;;;;4994573;28;20030;-77
2021/08/19 03:52:23;;;;;;;4.30;2.10;;;17.30;88.70;;;;;;4992142;28;20088;-77
2021/08/19 03:54:50;;;;;;;3.00;2.00;;;17.30;88.70;;;;;;4991415;28;20031;-78
2021/08/19 03:57:16;;;;;;;3.22;1.92;;;17.30;88.70;;;;;;4994441;28;20074;-78
2021/08/19 03:59:41;;;;;;;3.40;2.00;;;17.20;88.70;;;;;;4994309;28;20080;-78
2021/08/19 04:02:07;;;;;;;2.85;1.95;;;17.20;88.90;;;;;;4993879;28;20474;-76
2021/08/19 04:04:33;;;;;;;2.25;1.70;;;17.10;88.90;;;;;;4990539;28;20046;-77
2021/08/19 04:06:58;;;;;;;2.25;1.40;;;17.10;89.00;;;;;;4992330;28;20501;-77
2021/08/19 04:09:25;;;;;;;2.30;1.30;;;17.10;89.10;;;;;;4991714;28;20046;-77
2021/08/19 04:11:50;;;;;;;2.83;1.70;;;17.10;89.10;;;;;;4991339;28;20101;-77
2021/08/19 04:14:16;;;;;;;2.83;1.73;;;17.10;89.20;;;;;;4994175;28;20503;-77
2021/08/19 04:16:42;;;;;;;1.50;1.00;;;17.10;89.10;;;;;;4991626;28;20364;-77
2021/08/19 04:19:08;;;;;;;1.70;1.20;;;17.10;89.20;;;;;;4994294;28;20113;-77
2021/08/19 04:21:34;;;;;;;1.90;1.20;;;17.10;89.20;;;;;;5008632;28;20463;-77
2021/08/19 04:24:00;;;;;;;1.83;1.30;;;17.10;89.20;;;;;;4991443;28;20070;-77
2021/08/19 04:26:26;;;;;;;2.20;1.10;;;17.10;89.30;;;;;;4993570;28;20487;-77
2021/08/19 04:28:53;;;;;;;1.55;1.20;;;17.10;89.20;;;;;;4991821;28;20368;-77
2021/08/19 04:31:18;;;;;;;0.82;0.80;;;17.10;89.20;;;;;;4991955;28;20040;-77
2021/08/19 04:33:44;;;;;;;1.23;1.05;;;17.00;89.20;;;;;;4994123;28;20045;-77
2021/08/19 04:36:10;;;;;;;1.23;0.85;;;17.10;89.30;;;;;;5006783;28;20039;-77
2021/08/19 04:38:36;;;;;;;1.33;1.10;;;17.00;89.20;;;;;;4993479;28;20046;-77
2021/08/19 04:41:03;;;;;;;1.92;1.27;;;17.10;89.30;;;;;;4993571;28;20083;-77
2021/08/19 04:43:29;;;;;;;2.15;1.10;;;17.10;89.30;;;;;;4990952;28;20375;-78
2021/08/19 04:45:55;;;;;;;2.40;1.15;;;17.00;89.20;;;;;;5006928;28;20391;-77
2021/08/19 04:48:20;;;;;;;2.40;1.05;;;17.10;89.30;;;;;;4992158;28;20042;-77
2021/08/19 04:50:46;;;;;;;1.98;1.00;;;17.10;89.20;;;;;;4993404;28;20410;-77
2021/08/19 04:53:12;;;;;;;1.45;1.08;;;17.10;89.20;;;;;;4990500;28;20046;-77
2021/08/19 04:55:38;;;;;;;1.88;1.27;;;17.20;89.30;;;;;;4991714;28;20042;-77
2021/08/19 04:58:04;;;;;;;1.67;1.15;;;17.20;89.20;;;;;;4991334;28;20046;-77
2021/08/19 05:00:29;;;;;;;2.17;1.38;;;17.10;89.20;;;;;;4993548;28;20052;-77
2021/08/19 05:02:55;;;;;;;1.73;1.30;;;17.10;89.20;;;;;;4990133;28;20478;-78
2021/08/19 05:05:21;;;;;;;2.10;1.33;;;17.10;89.20;;;;;;5008372;28;20046;-77
2021/08/19 05:07:46;;;;;;;2.63;1.38;;;17.10;89.20;;;;;;4991971;28;20042;-77
2021/08/19 05:10:12;;;;;;;2.55;1.67;;;17.10;89.20;;;;;;4991961;28;20038;-78
2021/08/19 05:12:38;;;;;;;2.33;1.50;;;17.10;89.20;;;;;;4992003;28;20034;-77
2021/08/19 05:15:05;;;;;;;2.63;1.67;;;17.20;89.20;;;;;;4990465;28;20031;-78
2021/08/19 05:17:30;;;;;;;2.65;1.65;;;17.10;89.20;;;;;;4991599;28;20046;-77
2021/08/19 05:19:59;;;;;;;2.13;1.58;;;17.10;89.10;;;;;;4991737;28;20113;-78
2021/08/19 05:22:24;;;;;;;2.70;1.88;;;17.20;89.20;;;;;;4991756;28;20042;-78
2021/08/19 05:24:51;;;;;;;3.15;1.80;;;17.20;89.20;;;;;;4991617;28;20055;-78
2021/08/19 05:27:17;;;;;;;3.08;1.70;;;17.20;89.20;;;;;;4991827;28;20045;-78
2021/08/19 05:29:43;;;;;;;4.65;2.35;;;17.20;89.20;;;;;;4993212;28;20034;-78
2021/08/19 05:32:08;;;;;;;4.15;2.10;;;17.20;89.20;;;;;;5007081;28;20478;-78
2021/08/19 05:34:34;;;;;;;2.50;1.73;;;17.20;89.20;;;;;;5006417;28;20038;-78
2021/08/19 05:36:59;;;;;;;3.80;2.30;;;17.20;89.20;;;;;;4989723;28;20121;-78
2021/08/19 05:39:25;;;;;;;2.97;1.95;;;17.30;89.30;;;;;;5007412;28;20495;-77
2021/08/19 05:41:51;;;;;;;3.60;2.05;;;17.30;89.30;;;;;;4992504;28;20081;-78
2021/08/19 05:44:17;;;;;;;4.28;2.38;;;17.30;89.20;;;;;;4991420;28;20490;-78
2021/08/19 05:46:42;;;;;;;3.13;2.00;;;17.30;89.20;;;;;;4991151;28;20051;-78
2021/08/19 05:49:08;;;;;;;4.20;2.35;;;17.30;89.30;;;;;;5007121;28;20497;-78
2021/08/19 05:51:34;;;;;;;3.50;2.00;;;17.30;89.30;;;;;;4992727;28;20038;-77
2021/08/19 05:54:00;;;;;;;3.00;2.10;;;17.30;89.30;;;;;;4993051;28;20078;-78
2021/08/19 05:56:26;;;;;;;3.70;2.28;;;17.30;89.30;;;;;;5007076;28;20074;-78
2021/08/19 05:58:52;;;;;;;3.63;2.30;;;17.30;89.30;;;;;;4992384;28;20121;-78
2021/08/19 06:01:18;;;;;;;3.70;2.33;;;17.30;89.40;;;;;;4973367;28;20545;-78
2021/08/19 06:03:44;;;;;;;3.17;1.85;;;17.30;89.30;;;;;;4990965;28;20026;-78
2021/08/19 06:06:10;;;;;;;3.42;2.30;;;17.30;89.30;;;;;;4990742;28;20390;-77
2021/08/19 06:08:36;;;;;;;2.88;1.92;;;17.30;89.30;;;;;;5007294;28;20050;-78
2021/08/19 06:11:02;;;;;;;4.65;2.22;;;17.30;89.30;;;;;;4991459;28;20034;-78
2021/08/19 06:13:28;;;;;;;4.07;2.10;;;17.30;89.30;;;;;;4991037;28;20044;-78
2021/08/19 06:15:54;;;;;;;3.03;1.83;;;17.30;89.30;;;;;;4990832;28;20038;-77
2021/08/19 06:18:19;;;;;;;3.83;2.38;;;17.30;89.30;;;;;;4991083;28;20133;-78
2021/08/19 06:20:45;;;;;;;3.17;2.28;;;17.30;89.30;;;;;;4992729;28;20073;-78
2021/08/19 06:23:12;;;;;;;3.55;2.03;;;17.40;89.40;;;;;;4992071;28;20062;-77
2021/08/19 06:25:39;;;;;;;4.55;2.40;;;17.40;89.40;;;;;;5006918;28;20093;-78
2021/08/19 06:28:05;;;;;;;3.47;2.08;;;17.40;89.40;;;;;;4992719;28;20042;-77
2021/08/19 06:30:32;;;;;;;5.10;2.13;;;17.40;89.50;;;;;;5010558;28;20039;-78
2021/08/19 06:32:59;;;;;;;4.32;2.20;;;17.40;89.40;;;;;;5009638;28;20070;-77
2021/08/19 06:35:25;;;;;;;2.90;1.77;;;17.40;89.40;;;;;;4995406;28;20490;-78
2021/08/19 06:37:51;;;;;;;3.67;2.30;;;17.40;89.40;;;;;;4992405;28;20054;-78
2021/08/19 06:40:17;;;;;;;3.25;1.70;;;17.50;89.40;;;;;;4994050;28;20062;-77
2021/08/19 06:42:42;;;;;;;3.10;1.98;;;17.50;89.50;;;;;;4995495;28;20129;-77
2021/08/19 06:45:09;;;;;;;3.28;1.92;;;17.40;89.40;;;;;;4992457;28;20050;-78
2021/08/19 06:47:35;;;;;;;3.25;2.00;;;17.50;89.50;;;;;;5010124;28;20076;-77
2021/08/19 06:50:00;;;;;;;3.30;2.10;;;17.50;89.50;;;;;;5009563;28;20129;-77
2021/08/19 06:52:26;;;;;;;3.55;2.10;;;17.50;89.50;;;;;;4995471;28;20037;-78
2021/08/19 06:54:52;;;;;;;4.45;2.15;;;17.50;89.50;;;;;;4995192;28;20023;-77
2021/08/19 06:57:18;;;;;;;2.85;1.80;;;17.50;89.50;;;;;;4995191;28;20042;-77
2021/08/19 06:59:44;;;;;;;3.20;1.90;;;17.50;89.50;;;;;;4994907;28;20050;-78
2021/08/19 07:02:09;;;;;;;3.20;2.20;;;17.50;89.50;;;;;;4995627;28;20093;-78
2021/08/19 07:04:35;;;;;;;3.20;2.00;;;17.50;89.50;;;;;;4993408;28;20122;-78
2021/08/19 07:07:01;;;;;;;5.07;2.40;;;17.50;89.50;;;;;;4994952;28;20375;-78
2021/08/19 07:09:27;;;;;;;2.72;2.00;;;17.50;89.50;;;;;;5009026;28;20030;-78
2021/08/19 07:11:54;;;;;;;2.33;1.75;;;17.50;89.50;;;;;;4995682;28;20032;-77
2021/08/19 07:14:20;;;;;;;3.85;1.77;;;17.50;89.60;;;;;;4995307;28;20042;-77
2021/08/19 07:16:45;;;;;;;2.95;1.90;;;17.50;89.60;;;;;;5009013;28;20568;-77
2021/08/19 07:19:12;;;;;;;4.57;2.45;;;17.50;89.60;;;;;;4995337;28;20507;-78
2021/08/19 07:21:38;;;;;;;3.58;2.13;;;17.60;89.70;;;;;;4995033;28;20180;-78
2021/08/19 07:24:04;;;;;;;2.90;1.88;;;17.50;89.70;;;;;;4995250;28;20180;-77
2021/08/19 07:26:30;;;;;;;3.78;2.20;;;17.50;89.70;;;;;;4994686;28;20451;-78
2021/08/19 07:28:57;;;;;;;3.90;1.90;;;17.50;89.70;;;;;;4994816;28;20041;-78
2021/08/19 07:31:25;;;;;;;3.60;2.30;;;17.50;89.70;;;;;;4990010;28;20093;-78
2021/08/19 07:33:50;;;;;;;3.05;1.95;;;17.50;89.60;;;;;;4993312;28;20176;-78
2021/08/19 07:36:16;;;;;;;3.40;1.75;;;17.50;90.10;;;;;;4992454;28;20125;-78
2021/08/19 07:38:42;;;;;;;2.40;1.80;;;17.50;89.60;;;;;;5007635;28;20054;-78
2021/08/19 07:41:08;;;;;;;4.22;2.28;;;17.50;89.60;;;;;;4991387;28;20050;-78
2021/08/19 07:43:34;;;;;;;4.10;2.08;;;17.50;89.60;;;;;;4992930;28;20502;-78
2021/08/19 07:46:00;;;;;;;4.25;1.98;;;17.60;89.70;;;;;;4995228;28;20077;-78
2021/08/19 07:48:26;;;;;;;3.55;2.05;;;17.60;89.60;;;;;;4995091;28;20078;-77
2021/08/19 07:50:52;;;;;;;3.45;1.98;;;17.60;89.60;;;;;;4994381;28;20038;-77
2021/08/19 07:53:17;;;;;;;2.90;1.67;;;17.60;89.60;;;;;;4994346;28;20033;-77
2021/08/19 07:55:43;;;;;;;4.03;2.22;;;17.60;89.60;;;;;;5008286;28;20038;-77
2021/08/19 07:58:09;;;;;;;3.22;1.83;;;17.70;89.60;;;;;;4993294;28;20042;-77
2021/08/19 08:00:36;;;;;;;2.83;1.80;;;17.70;89.50;;;;;;4992305;28;20047;-77
2021/08/19 08:03:03;;;;;;;2.50;1.75;;;17.70;89.50;;;;;;4994688;28;20549;-78
2021/08/19 08:05:31;;;;;;;4.13;2.20;;;17.70;89.40;;;;;;4991605;28;20088;-78
2021/08/19 08:08:03;;;;;;;2.35;1.73;;;17.70;89.40;;;;;;4991031;28;20471;-78
2021/08/19 08:10:30;;;;;;;3.10;2.20;;;17.70;89.40;;;;;;4991912;28;20030;-78
2021/08/19 08:12:58;;;;;;;3.10;1.90;;;17.80;89.40;;;;;;4991006;28;20085;-77
2021/08/19 08:15:25;;;;;;;2.38;1.60;;;17.70;89.40;;;;;;4992562;28;20042;-77
2021/08/19 08:17:50;;;;;;;3.25;2.05;;;17.80;89.30;;;;;;4991909;28;20050;-78
2021/08/19 08:20:17;;;;;;;2.75;2.05;;;17.70;89.30;;;;;;4991983;28;20051;-78
2021/08/19 08:22:45;;;;;;;3.35;2.15;;;17.80;89.30;;;;;;4990838;28;20045;-78
2021/08/19 08:25:12;;;;;;;4.20;2.22;;;17.80;89.30;;;;;;4992444;28;20050;-79
2021/08/19 08:27:52;;;;;;;3.13;2.13;;;17.90;89.40;;;;;;4991812;28;20074;-79
2021/08/19 08:30:18;;;;;;;3.10;2.08;;;17.90;89.30;;;;;;4993895;28;20039;-78
2021/08/19 08:32:43;;;;;;;3.50;1.92;;;17.90;89.30;;;;;;4990531;28;20049;-78
2021/08/19 08:35:09;;;;;;;4.38;2.20;;;17.90;89.20;;;;;;4993593;28;20030;-78
2021/08/19 08:37:35;;;;;;;3.65;2.10;;;17.90;89.30;;;;;;4993979;28;20038;-78
2021/08/19 08:40:01;;;;;;;3.30;1.85;;;17.90;89.30;;;;;;4990971;28;20371;-77
2021/08/19 08:42:28;;;;;;;3.72;2.28;;;17.90;89.40;;;;;;4992293;28;20067;-77
2021/08/19 08:44:56;;;;;;;3.60;1.83;;;17.90;89.40;;;;;;4993978;28;20041;-78
2021/08/19 08:47:24;;;;;;;4.53;2.10;;;17.80;89.40;;;;;;4993669;28;20049;-78
2021/08/19 08:49:51;;;;;;;4.50;1.90;;;17.80;89.40;;;;;;4991014;28;20038;-78
2021/08/19 08:52:17;;;;;;;3.25;1.92;;;17.90;89.50;;;;;;4990484;28;20038;-78
2021/08/19 08:54:42;;;;;;;2.72;1.60;;;17.80;89.50;;;;;;5008556;28;20045;-78
2021/08/19 08:57:08;;;;;;;2.75;1.60;;;17.80;89.50;;;;;;4991303;28;20046;-77
2021/08/19 08:59:34;;;;;;;2.58;1.70;;;17.80;89.50;;;;;;4991113;28;20030;-77
2021/08/19 09:02:01;;;;;;;3.13;1.80;;;17.80;89.60;;;;;;4992100;28;20394;-78
2021/08/19 09:04:27;;;;;;;3.25;1.90;;;17.90;89.60;;;;;;4991616;28;20057;-78
2021/08/19 09:06:53;;;;;;;2.78;1.92;;;17.80;89.60;;;;;;4991184;28;20038;-78
2021/08/19 09:09:21;;;;;;;4.50;1.98;;;17.80;89.60;;;;;;5006427;28;20045;-78
2021/08/19 09:11:54;;;;;;;4.03;2.58;;;17.80;89.60;;;;;;5006115;28;20061;-78
2021/08/19 09:14:27;;;;;;;2.67;1.92;;;17.80;89.60;;;;;;4990346;28;20134;-79
2021/08/19 09:16:54;;;;;;;3.28;1.83;;;17.80;89.60;;;;;;4993359;28;20049;-78
2021/08/19 09:19:22;;;;;;;2.88;1.85;;;17.80;89.70;;;;;;4973914;28;20041;-79
2021/08/19 09:21:51;;;;;;;3.72;1.80;;;17.80;89.70;;;;;;4993401;28;20046;-78
2021/08/19 09:24:21;;;;;;;2.28;1.50;;;17.80;89.60;;;;;;5008068;28;20084;-78
2021/08/19 09:26:49;;;;;;;2.07;1.60;;;17.90;89.70;;;;;;4991827;28;20046;-78
2021/08/19 09:29:31;;;;;;;2.58;1.50;;;17.90;89.70;;;;;;5007504;28;20129;-79
2021/08/19 09:32:13;;;;;;;1.63;1.35;;;17.90;89.70;;;;;;4991387;28;20026;-80
2021/08/19 09:34:41;;;;;;;1.80;1.40;;;17.80;89.70;;;;;;5006788;28;20045;-78
2021/08/19 09:37:11;;;;;;;2.63;1.80;;;17.80;90.00;;;;;;4990092;28;20038;-78
2021/08/19 09:39:43;;;;;;;2.70;1.95;;;17.80;90.00;;;;;;4989860;28;20038;-79
2021/08/19 09:42:10;;;;;;;1.98;1.63;;;17.70;89.90;;;;;;4990262;28;20034;-79
2021/08/19 09:44:40;;;;;;;3.45;1.85;;;17.70;89.90;;;;;;4992915;28;20042;-81
2021/08/19 09:47:18;;;;;;;3.15;1.80;;;17.70;90.00;;;;;;4991333;28;20174;-81
2021/08/19 09:49:44;;;;;;;2.58;1.70;;;17.80;90.00;;;;;;4992844;28;20445;-82
2021/08/19 09:52:11;;;;;;;2.15;1.40;;;17.70;90.00;;;;;;4973807;28;20133;-80
2021/08/19 09:54:40;;;;;;;4.05;1.67;;;17.80;90.00;;;;;;4989626;28;20038;-80
2021/08/19 09:57:07;;;;;;;1.85;1.40;;;17.80;90.00;;;;;;4993000;28;20081;-80
2021/08/19 09:59:37;;;;;;;1.80;1.30;;;17.80;90.00;;;;;;5007017;28;20053;-81
2021/08/19 10:02:05;;;;;;;2.50;1.40;;;17.90;89.90;;;;;;4990919;28;20068;-80
2021/08/19 10:04:31;;;;;;;2.65;1.60;;;18.00;89.80;;;;;;4992922;28;20121;-81
2021/08/19 10:06:58;;;;;;;3.10;1.83;;;18.10;89.60;;;;;;4992992;28;20185;-81
2021/08/19 10:09:24;;;;;;;3.33;1.80;;;18.10;89.40;;;;;;5005801;28;20089;-81
2021/08/19 10:11:52;;;;;;;3.00;1.70;;;18.10;89.20;;;;;;4992843;28;20041;-81
2021/08/19 10:14:21;;;;;;;2.42;1.55;;;18.20;89.20;;;;;;4990536;28;20074;-80
2021/08/19 10:16:48;;;;;;;2.03;1.60;;;18.20;89.30;;;;;;4990352;28;20042;-80
2021/08/19 10:19:34;;;;;;;2.33;1.63;;;18.20;89.20;;;;;;4989980;28;20512;-81
2021/08/19 10:22:06;;;;;;;2.90;1.70;;;18.30;89.20;;;;;;4992287;28;20533;-78
2021/08/19 10:24:34;;;;;;;2.60;1.70;;;18.30;89.00;;;;;;4990176;28;20031;-79
2021/08/19 10:27:12;;;;;;;2.53;1.70;;;18.30;88.90;;;;;;4989899;28;20043;-79
2021/08/19 10:29:44;;;;;;;3.33;1.90;;;18.30;88.90;;;;;;4991433;28;20093;-79
2021/08/19 10:32:28;;;;;;;2.63;1.63;;;18.40;89.00;;;;;;4988958;28;20030;-80
2021/08/19 10:34:57;;;;;;;2.30;1.60;;;18.30;89.00;;;;;;4990729;28;20546;-79
2021/08/19 10:38:02;;;;;;;2.35;1.60;;;18.40;89.10;;;;;;4990642;28;20041;-78
2021/08/19 10:40:33;;;;;;;1.73;1.38;;;18.50;89.10;;;;;;5007243;28;20038;-78
2021/08/19 10:43:20;;;;;;;1.58;1.40;;;18.60;88.90;;;;;;4990066;28;20058;-78
2021/08/19 10:45:45;;;;;;;2.45;1.60;;;18.60;88.80;;;;;;5005769;28;20026;-78
2021/08/19 10:48:27;;;;;;;1.88;1.48;;;18.70;88.40;;;;;;4992474;28;20065;-78
2021/08/19 10:51:09;;;;;;;3.03;1.88;;;18.70;88.40;;;;;;4992347;28;20038;-79
2021/08/19 10:53:35;;;;;;;2.63;1.63;;;18.60;88.50;;;;;;4992357;28;20097;-78
2021/08/19 10:56:00;;;;;;;2.83;1.98;;;18.60;88.60;;;;;;5004770;28;20034;-78
2021/08/19 10:58:28;;;;;;;2.58;1.80;;;18.60;88.60;;;;;;4990613;28;20426;-78
2021/08/19 11:00:58;;;;;;;3.83;2.08;;;18.70;88.70;;;;;;5006400;28;20050;-80
2021/08/19 11:03:41;;;;;;;3.22;2.10;;;18.70;88.60;;;;;;4990708;28;20050;-77
2021/08/19 11:06:13;;;;;;;2.40;1.52;;;18.60;88.60;;;;;;4989722;28;20057;-78
2021/08/19 11:08:52;;;;;;;2.80;1.90;;;18.60;88.80;;;;;;4990387;28;20043;-78
2021/08/19 11:11:34;;;;;;;2.08;1.65;;;18.60;89.40;;;;;;5006016;28;20035;-78
2021/08/19 11:14:04;;;;;;;2.92;2.00;;;18.60;88.90;;;;;;4995390;28;20038;-78
2021/08/19 11:16:30;;;;;;;2.60;1.85;;;18.50;89.60;;;;;;4994520;28;20034;-78
2021/08/19 11:19:15;;;;;;;3.15;2.00;;;18.50;89.00;;;;;;4993634;28;20545;-78
2021/08/19 11:21:47;;;;;;;2.97;1.85;;;18.40;89.00;;;;;;4993441;28;20042;-79
2021/08/19 11:24:13;;;;;;;1.85;1.55;;;18.40;89.20;;;;;;5010410;28;20046;-78
2021/08/19 11:26:39;;;;;;;3.13;1.90;;;18.50;90.00;;;;;;4995127;28;20030;-78
2021/08/19 11:29:04;;;;;;;2.10;1.40;;;18.40;89.30;;;;;;5008802;28;20062;-77
2021/08/19 11:31:30;;;;;;;2.67;1.90;;;18.40;89.30;;;;;;4991370;28;20121;-77
2021/08/19 11:34:01;;;;;;;3.50;1.88;;;18.30;89.20;;;;;;4993683;28;20565;-78
2021/08/19 11:36:27;;;;;;;2.60;1.73;;;18.40;89.30;;;;;;4993628;28;20042;-77
2021/08/19 11:38:59;;;;;;;2.00;1.65;;;18.30;89.30;;;;;;5009893;28;20038;-78
2021/08/19 11:41:26;;;;;;;2.17;1.55;;;18.30;89.30;;;;;;4995335;28;20038;-78
2021/08/19 11:44:00;;;;;;;3.17;2.00;;;18.30;89.40;;;;;;4992323;28;20049;-78
2021/08/19 11:46:27;;;;;;;2.90;2.15;;;18.30;89.40;;;;;;4995513;28;20038;-78
2021/08/19 11:48:56;;;;;;;2.97;1.90;;;18.20;89.40;;;;;;4992860;28;20074;-78
2021/08/19 11:51:26;;;;;;;2.45;1.83;;;18.20;89.50;;;;;;5009458;28;20053;-77
2021/08/19 11:54:07;;;;;;;2.60;1.90;;;18.30;89.40;;;;;;4992109;28;20045;-77
2021/08/19 11:56:37;;;;;;;2.53;1.80;;;18.30;89.30;;;;;;4992039;28;20043;-78
2021/08/19 11:59:07;;;;;;;2.53;1.65;;;18.40;89.20;;;;;;5007998;28;20427;-78
2021/08/19 12:01:35;;;;;;;2.45;1.50;;;18.40;89.00;;;;;;4995514;28;20089;-77
2021/08/19 12:04:02;;;;;;;2.75;1.75;;;18.50;88.80;;;;;;4993121;28;20074;-78
2021/08/19 12:06:28;;;;;;;2.22;1.70;;;18.60;88.70;;;;;;4992670;28;20482;-78
2021/08/19 12:08:57;;;;;;;2.10;1.60;;;18.60;88.50;;;;;;5008595;28;20042;-77
2021/08/19 12:11:28;;;;;;;2.70;1.77;;;18.60;88.50;;;;;;4992370;28;20061;-77
2021/08/19 12:13:54;;;;;;;2.00;1.60;;;18.60;88.40;;;;;;4994405;28;20076;-78
2021/08/19 12:16:26;;;;;;;2.92;1.80;;;18.70;88.30;;;;;;4991663;28;20046;-77
2021/08/19 12:19:07;;;;;;;2.33;1.70;;;18.80;88.20;;;;;;4994483;28;20037;-78
2021/08/19 12:21:34;;;;;;;4.05;1.92;;;18.90;88.20;;;;;;5009807;28;20088;-78
2021/08/19 12:24:18;;;;;;;1.80;1.50;;;18.90;88.00;;;;;;4994220;28;20494;-78
2021/08/19 12:27:02;;;;;;;2.60;1.60;;;18.90;87.80;;;;;;5009192;28;20125;-77
2021/08/19 12:29:29;;;;;;;2.38;1.88;;;18.90;87.70;;;;;;4994793;28;20038;-77
2021/08/19 12:31:55;;;;;;;2.85;2.05;;;18.90;87.70;;;;;;5008698;28;20053;-78
2021/08/19 12:34:21;;;;;;;2.35;1.80;;;18.90;87.80;;;;;;5009046;28;20042;-77
2021/08/19 12:36:47;;;;;;;2.30;1.70;;;18.80;87.90;;;;;;5008816;28;20046;-77
2021/08/19 12:39:24;;;;;;;1.80;1.33;;;18.80;88.00;;;;;;4993804;28;20510;-78
2021/08/19 12:42:08;;;;;;;2.63;1.70;;;18.80;88.00;;;;;;4992693;28;20039;-79
2021/08/19 12:44:35;;;;;;;2.53;1.70;;;18.70;87.90;;;;;;4994077;28;20081;-78
2021/08/19 12:47:01;;;;;;;2.35;1.60;;;18.80;88.00;;;;;;4991443;28;20081;-78
2021/08/19 12:49:34;;;;;;;1.60;1.35;;;18.70;88.00;;;;;;4994123;28;20042;-78
2021/08/19 12:52:26;;;;;;;2.47;1.90;;;18.70;88.10;;;;;;4991439;28;20398;-79